Aviation Digital Data Service (ADDS)

Output produced by METARs form (1221 UTC 26 March 2019)
found at http://www.aviationweather.gov/metar/data/
 
DNAA 261200Z 17006KT 9999 SCT013 34/18 Q1012 NOSIG
TAF DNAA 260950Z 2612/2718 29003KT 9999 BKN011 
     BECMG 2613/2615 14010KT FEW012 
     BECMG 2618/2620 07003KT
       
DNAK 260800Z 24004KT 9999 BKN011 27/25 Q1015
TAF DNAK 260950Z 2612/2718 22010KT 9999 SCT013 
     TEMPO 2613/2617 BKN014 FEW020CB 
     PROB30 
     TEMPO 2614/2617 TS BKN014 FEW020CB 
     BECMG 2618/2620 VRB02KT FEW011
       
TAF DNBE 260950Z 2612/2718 20010KT 9999 BKN013 
     TEMPO 2612/2616 TS BKN013 FEW020CB 
     BECMG 2617/2619 VRB02KT FEW010
       
DNCA 261000Z 17003KT BKN010 FEW020CB 30/26 Q1014
TAF DNCA 260940Z 2612/2718 22008KT 8000 BKN010 FEW020CB 
     TEMPO 2613/2617 TS 
     BECMG 2618/2620 VRB02KT BKN008
       
DNEN 260800Z 24003KT 9999 SCT011 28/25 Q1013 NOSIG
TAF DNEN 260940Z 2612/2718 27010KT 9999 BKN013 
     TEMPO 2615/2618 SCT013 FEW020CB 
     BECMG 2619/2621 VRB02KT FEW010
       
DNIB 261100Z 18006KT 9999 SCT013 31/23 Q1012
TAF DNIB 260950Z 2612/2718 21010KT 9999 SCT013 
     TEMPO 2613/2617 BKN014 FEW020CB 
     PROB30 
     TEMPO 2613/2615 TS BKN014 FEW020CB 
     BECMG 2618/2620 VRB02KT FEW011
       
TAF DNJO 260950Z 2612/2718 08010KT CAVOK 
     BECMG 2618/2620 16006KT
       
DNKN 261200Z 09011KT 7000 NSC 36/02 Q1017 NOSIG
TAF DNKN 260950Z 2612/2718 05010KT CAVOK 
     TEMPO 2706/2712 5000 HZ NSC
       
DNMM 261200Z 15004KT 9999 BKN015 34/26 Q1013 NOSIG
TAF DNMM 260950Z 2612/2718 23010KT 9999 BKN014 
     TEMPO 2612/2617 BKN014 FEW020CB 
     PROB30 
     TEMPO 2613/2616 TS BKN014 FEW020CB 
     BECMG 2618/2620 VRB02KT FEW011
       
TAF DNMA 260950Z 2612/2718 05010KT 3000 HZ NSC 
     BECMG 2613/2615 5000
       
DNMN 260800Z 24003KT CAVOK 30/22 Q1009
DNPO 261200Z 18003KT BKN013 FEW020CB 33/24 Q1010 TEMPO TS
TAF DNPO 260940Z 2612/2718 24008KT 8000 BKN010 FEW020CB 
     TEMPO 2612/2617 TS 
     PROB30 2613/2616 5000 -TSRA 
     BECMG 2618/2620 VRB02KT SCT008
       
TAF DNSO 260950Z 2612/2718 13010KT CAVOK 
     TEMPO 2706/2712 5000 HZ NSC
       
TAF DNYO 260950Z 2612/2718 33010KT 9999 FEW016 
     TEMPO 2616/2620 FEW021CB TS 
     BECMG 2700/2702 CAVOK